Time;durP1;ratioP1;P1;durP2;ratioP2;P2;SDS_P1;SDS_P2;PMS_P1;PMS_P2;Temp;Humidity;BMP_temperature;BMP_pressure;BME280_temperature;BME280_humidity;BME280_pressure;Samples;Min_cycle;Max_cycle;Signal;HPM_P1;HPM_P2
2021/10/10 00:00:48;;;;;;;41.72;24.42;;;6.30;99.90;;;;;;5102798;28;20036;-68
2021/10/10 00:03:13;;;;;;;37.95;24.05;;;6.30;99.90;;;;;;5096202;28;20075;-68
2021/10/10 00:05:39;;;;;;;39.78;25.35;;;6.20;99.90;;;;;;5102998;28;20040;-68
2021/10/10 00:08:05;;;;;;;42.95;25.35;;;6.30;99.90;;;;;;5096065;28;20044;-68
2021/10/10 00:10:31;;;;;;;36.67;24.38;;;6.20;99.90;;;;;;5101550;28;20052;-68
2021/10/10 00:12:58;;;;;;;40.90;26.60;;;6.20;99.90;;;;;;5094366;28;20040;-68
2021/10/10 00:15:24;;;;;;;42.88;27.20;;;6.20;99.90;;;;;;5083447;28;20055;-68
2021/10/10 00:17:50;;;;;;;45.00;26.13;;;6.10;99.90;;;;;;5094066;28;20032;-68
2021/10/10 00:20:17;;;;;;;42.35;26.85;;;6.10;99.90;;;;;;5100949;28;20076;-68
2021/10/10 00:22:42;;;;;;;42.85;27.38;;;6.00;99.90;;;;;;5091517;28;20036;-68
2021/10/10 00:25:09;;;;;;;44.75;27.90;;;6.00;99.90;;;;;;5095490;28;20042;-68
2021/10/10 00:27:35;;;;;;;49.38;26.92;;;6.10;99.90;;;;;;5075045;28;20044;-68
2021/10/10 00:30:02;;;;;;;38.00;26.17;;;6.00;99.90;;;;;;5100906;28;20511;-68
2021/10/10 00:32:28;;;;;;;42.28;27.63;;;6.00;99.90;;;;;;5073660;28;20041;-68
2021/10/10 00:34:54;;;;;;;42.03;27.48;;;6.00;99.90;;;;;;5100549;28;20403;-68
2021/10/10 00:37:20;;;;;;;40.28;26.08;;;6.10;99.90;;;;;;5076548;28;20045;-68
2021/10/10 00:39:45;;;;;;;45.58;28.17;;;6.10;99.90;;;;;;5079444;28;20143;-68
2021/10/10 00:42:11;;;;;;;36.85;25.05;;;6.00;99.90;;;;;;5097164;28;20056;-68
2021/10/10 00:44:36;;;;;;;37.13;25.40;;;6.00;99.90;;;;;;5077703;28;20060;-68
2021/10/10 00:47:02;;;;;;;43.50;25.60;;;6.10;99.90;;;;;;5104932;28;20066;-67
2021/10/10 00:49:28;;;;;;;43.40;25.33;;;6.10;99.90;;;;;;5099828;28;20385;-68
2021/10/10 00:51:57;;;;;;;39.58;24.92;;;6.10;99.90;;;;;;5099045;28;20037;-68
2021/10/10 00:54:23;;;;;;;42.45;25.40;;;6.00;99.90;;;;;;5082363;28;20052;-68
2021/10/10 00:56:50;;;;;;;39.47;24.33;;;6.00;99.90;;;;;;5096944;28;20039;-67
2021/10/10 00:59:22;;;;;;;43.83;25.00;;;6.10;99.90;;;;;;5102740;28;20040;-68
2021/10/10 01:01:51;;;;;;;41.35;26.10;;;6.10;99.90;;;;;;5060313;28;20507;-68
2021/10/10 01:04:17;;;;;;;41.40;26.00;;;5.90;99.90;;;;;;5088859;28;20345;-68
2021/10/10 01:06:43;;;;;;;44.28;26.15;;;5.90;99.90;;;;;;5095913;28;20044;-68
2021/10/10 01:09:16;;;;;;;41.15;25.08;;;6.00;99.90;;;;;;5086409;28;20093;-68
2021/10/10 01:11:43;;;;;;;40.22;25.80;;;5.90;99.90;;;;;;5095358;28;20047;-67
2021/10/10 01:14:11;;;;;;;38.10;25.50;;;5.90;99.90;;;;;;5084571;28;20070;-68
2021/10/10 01:16:37;;;;;;;40.13;26.48;;;5.90;99.90;;;;;;5105652;28;20083;-68
2021/10/10 01:19:03;;;;;;;43.20;25.38;;;5.90;99.90;;;;;;5101255;28;20032;-68
2021/10/10 01:21:28;;;;;;;45.00;27.00;;;5.80;99.90;;;;;;5093680;28;20044;-68
2021/10/10 01:23:54;;;;;;;39.97;25.23;;;5.80;99.90;;;;;;5100361;28;20032;-68
2021/10/10 01:26:20;;;;;;;47.17;25.70;;;5.90;99.90;;;;;;5095891;28;20043;-68
2021/10/10 01:28:47;;;;;;;47.17;28.13;;;5.80;99.90;;;;;;5100285;28;20084;-68
2021/10/10 01:31:13;;;;;;;37.13;26.00;;;5.80;99.90;;;;;;5093100;28;20040;-68
2021/10/10 01:33:39;;;;;;;43.13;26.63;;;5.70;99.90;;;;;;5100415;28;20367;-68
2021/10/10 01:36:13;;;;;;;42.80;26.63;;;5.70;99.90;;;;;;5092616;28;20445;-68
2021/10/10 01:38:43;;;;;;;48.28;28.05;;;5.60;99.90;;;;;;5098889;28;20039;-68
2021/10/10 01:41:09;;;;;;;42.13;27.17;;;5.70;99.90;;;;;;5092721;28;20044;-68
2021/10/10 01:43:36;;;;;;;43.40;27.08;;;5.60;99.90;;;;;;5096078;28;20492;-68
2021/10/10 01:46:03;;;;;;;43.28;27.67;;;5.70;99.90;;;;;;5085372;28;20055;-68
2021/10/10 01:48:28;;;;;;;43.65;29.17;;;5.70;99.90;;;;;;5103194;28;20056;-68
2021/10/10 01:50:54;;;;;;;43.60;28.38;;;5.70;99.90;;;;;;5096024;28;20123;-68
2021/10/10 01:53:20;;;;;;;42.50;28.25;;;5.70;99.90;;;;;;5103875;28;20063;-68
2021/10/10 01:55:46;;;;;;;47.85;29.90;;;5.60;99.90;;;;;;5077627;28;20054;-68
2021/10/10 01:58:12;;;;;;;46.05;28.85;;;5.60;99.90;;;;;;5102184;28;20105;-68
2021/10/10 02:00:38;;;;;;;39.83;27.45;;;5.60;99.90;;;;;;5080175;28;20480;-68
2021/10/10 02:03:04;;;;;;;45.38;28.95;;;5.60;99.90;;;;;;5100032;28;20097;-67
2021/10/10 02:05:29;;;;;;;46.10;30.10;;;5.50;99.90;;;;;;5099691;28;20131;-68
2021/10/10 02:07:55;;;;;;;44.90;29.95;;;5.50;99.90;;;;;;5097793;28;20504;-67
2021/10/10 02:10:21;;;;;;;41.53;27.80;;;5.50;99.90;;;;;;5101307;28;20046;-68
2021/10/10 02:12:47;;;;;;;43.40;28.40;;;5.50;99.90;;;;;;5095847;28;20067;-68
2021/10/10 02:15:13;;;;;;;41.95;28.40;;;5.50;99.90;;;;;;5102100;28;20488;-68
2021/10/10 02:17:39;;;;;;;46.28;28.05;;;5.50;99.90;;;;;;5101234;28;20062;-67
2021/10/10 02:20:06;;;;;;;44.15;27.90;;;5.50;99.90;;;;;;5101350;28;20043;-68
2021/10/10 02:22:32;;;;;;;47.00;28.98;;;5.50;99.90;;;;;;5092769;28;20474;-68
2021/10/10 02:24:57;;;;;;;44.47;27.13;;;5.40;99.90;;;;;;5098965;28;20074;-68
2021/10/10 02:27:23;;;;;;;44.92;28.15;;;5.50;99.90;;;;;;5093747;28;20040;-68
2021/10/10 02:29:49;;;;;;;42.72;26.38;;;5.40;99.90;;;;;;5101206;28;20048;-68
2021/10/10 02:32:15;;;;;;;39.08;25.52;;;5.40;99.90;;;;;;5093589;28;20440;-68
2021/10/10 02:34:40;;;;;;;38.60;26.95;;;5.40;99.90;;;;;;5099955;28;20040;-68
2021/10/10 02:37:07;;;;;;;43.80;27.00;;;5.30;99.90;;;;;;5093199;28;20048;-68
2021/10/10 02:39:34;;;;;;;44.50;28.13;;;5.20;99.90;;;;;;5099288;28;20040;-68
2021/10/10 02:41:59;;;;;;;41.28;26.98;;;5.20;99.90;;;;;;5093256;28;20057;-68
2021/10/10 02:44:26;;;;;;;48.63;29.80;;;5.10;99.90;;;;;;5099071;28;20060;-67
2021/10/10 02:46:51;;;;;;;50.00;28.65;;;5.10;99.90;;;;;;5092895;28;20080;-67
2021/10/10 02:49:17;;;;;;;41.03;28.42;;;5.10;99.90;;;;;;5096942;28;20051;-67
2021/10/10 02:51:42;;;;;;;50.55;28.08;;;5.00;99.90;;;;;;5095274;28;20072;-67
2021/10/10 02:54:08;;;;;;;43.75;29.20;;;4.90;99.90;;;;;;5094889;28;20036;-67
2021/10/10 02:56:34;;;;;;;47.03;29.95;;;4.80;99.90;;;;;;5085126;28;20048;-67
2021/10/10 02:59:00;;;;;;;50.67;31.35;;;4.80;99.90;;;;;;5098209;28;20125;-67
2021/10/10 03:01:26;;;;;;;43.92;27.85;;;4.80;99.90;;;;;;5101020;28;20076;-67
2021/10/10 03:03:51;;;;;;;48.55;30.20;;;4.90;99.90;;;;;;5095886;28;20096;-67
2021/10/10 03:06:17;;;;;;;50.97;32.42;;;5.00;99.90;;;;;;5103039;28;20055;-67
2021/10/10 03:08:43;;;;;;;53.83;33.80;;;5.00;99.90;;;;;;5095867;28;20044;-67
2021/10/10 03:11:09;;;;;;;49.92;32.70;;;5.00;99.90;;;;;;5102098;28;20039;-67
2021/10/10 03:13:35;;;;;;;55.58;32.92;;;5.00;99.90;;;;;;5095369;28;20052;-67
2021/10/10 03:16:01;;;;;;;54.13;33.67;;;4.90;99.90;;;;;;5102304;28;20495;-67
2021/10/10 03:18:27;;;;;;;49.05;31.48;;;4.90;99.90;;;;;;5093997;28;20065;-67
2021/10/10 03:20:53;;;;;;;44.10;28.38;;;5.00;99.90;;;;;;5101085;28;20047;-68
2021/10/10 03:23:19;;;;;;;49.35;29.88;;;5.00;99.90;;;;;;5093831;28;20052;-67
2021/10/10 03:25:45;;;;;;;44.63;27.52;;;4.90;99.90;;;;;;5100607;28;20040;-67
2021/10/10 03:28:10;;;;;;;43.08;28.58;;;4.90;99.90;;;;;;5075812;28;20071;-67
2021/10/10 03:30:36;;;;;;;35.40;24.92;;;4.80;99.90;;;;;;5101214;28;20522;-67
2021/10/10 03:33:02;;;;;;;43.60;27.95;;;4.90;99.90;;;;;;5103531;28;20040;-67
2021/10/10 03:35:28;;;;;;;45.92;28.75;;;4.80;99.90;;;;;;5100458;28;20040;-67
2021/10/10 03:37:53;;;;;;;52.67;29.27;;;4.80;99.90;;;;;;5094883;28;20049;-67
2021/10/10 03:40:19;;;;;;;49.92;29.00;;;4.80;99.90;;;;;;5098181;28;20127;-67
2021/10/10 03:42:45;;;;;;;46.20;29.35;;;4.70;99.90;;;;;;5096350;28;20040;-68
2021/10/10 03:45:10;;;;;;;53.78;32.17;;;4.70;99.90;;;;;;5096402;28;20089;-67
2021/10/10 03:47:37;;;;;;;46.25;31.85;;;4.80;99.90;;;;;;5102626;28;20059;-67
2021/10/10 03:50:05;;;;;;;41.80;29.38;;;4.80;99.90;;;;;;5098985;28;20036;-67
2021/10/10 03:52:30;;;;;;;52.77;32.80;;;4.70;99.90;;;;;;5099710;28;20047;-67
2021/10/10 03:57:37;;;;;;;51.10;33.05;;;4.80;99.90;;;;;;5102931;28;20044;-67
2021/10/10 04:00:06;;;;;;;63.15;36.20;;;4.80;99.90;;;;;;5100221;28;20045;-67
2021/10/10 04:02:32;;;;;;;50.72;33.85;;;4.80;99.90;;;;;;5098040;28;20045;-67
2021/10/10 04:04:59;;;;;;;52.47;31.67;;;4.80;99.90;;;;;;5101405;28;20091;-67
2021/10/10 04:07:25;;;;;;;59.77;34.90;;;4.80;99.90;;;;;;5096367;28;20119;-67
2021/10/10 04:09:51;;;;;;;51.75;35.08;;;4.70;99.90;;;;;;5102219;28;20381;-67
2021/10/10 04:12:17;;;;;;;58.95;33.38;;;4.70;99.90;;;;;;5095653;28;20048;-67
2021/10/10 04:14:43;;;;;;;62.55;35.65;;;4.70;99.90;;;;;;5102609;28;20047;-67
2021/10/10 04:17:08;;;;;;;51.70;33.50;;;4.80;99.90;;;;;;5095354;28;20044;-67
2021/10/10 04:19:34;;;;;;;55.42;33.53;;;4.60;99.90;;;;;;5101734;28;20044;-67
2021/10/10 04:22:00;;;;;;;57.97;35.45;;;4.60;99.90;;;;;;5095060;28;20065;-67
2021/10/10 04:24:26;;;;;;;60.15;35.80;;;4.70;99.90;;;;;;5100653;28;20055;-67
2021/10/10 04:26:52;;;;;;;67.38;38.22;;;4.60;99.90;;;;;;5093666;28;20032;-67
2021/10/10 04:29:18;;;;;;;55.05;32.88;;;4.60;99.90;;;;;;5100778;28;20048;-67
2021/10/10 04:31:44;;;;;;;54.43;33.77;;;4.50;99.90;;;;;;5093423;28;20040;-67
2021/10/10 04:34:11;;;;;;;63.33;36.22;;;4.40;99.90;;;;;;5100464;28;20344;-67
2021/10/10 04:36:39;;;;;;;60.83;35.30;;;4.40;99.90;;;;;;5093455;28;20084;-68
2021/10/10 04:39:05;;;;;;;56.40;36.22;;;4.30;99.90;;;;;;5100303;28;20040;-67
2021/10/10 04:41:30;;;;;;;60.35;37.63;;;4.30;99.90;;;;;;5074245;28;20048;-67
2021/10/10 04:43:56;;;;;;;60.88;36.42;;;4.20;99.90;;;;;;5081475;28;20048;-67
2021/10/10 04:46:22;;;;;;;63.85;38.30;;;4.40;99.90;;;;;;5102160;28;20514;-66
2021/10/10 04:48:47;;;;;;;59.30;36.70;;;4.40;99.90;;;;;;5096109;28;20055;-66
2021/10/10 04:51:13;;;;;;;58.28;37.33;;;4.50;99.90;;;;;;5102845;28;20122;-66
2021/10/10 04:53:39;;;;;;;52.63;36.13;;;4.40;99.90;;;;;;5097387;28;20048;-66
2021/10/10 04:56:05;;;;;;;60.70;37.78;;;4.40;99.90;;;;;;5099957;28;20123;-66
2021/10/10 04:58:30;;;;;;;61.28;35.15;;;4.30;99.90;;;;;;5098845;28;20062;-66
2021/10/10 05:00:57;;;;;;;57.97;36.42;;;4.30;99.90;;;;;;5097228;28;20047;-67
2021/10/10 05:03:24;;;;;;;60.38;37.35;;;4.30;99.90;;;;;;5100489;28;20059;-66
2021/10/10 05:05:50;;;;;;;71.35;41.17;;;4.20;99.90;;;;;;5095968;28;20036;-66
2021/10/10 05:08:17;;;;;;;65.72;41.30;;;4.20;99.90;;;;;;5083580;28;20052;-66
2021/10/10 05:10:42;;;;;;;64.45;40.83;;;4.20;99.90;;;;;;5094944;28;20040;-66
2021/10/10 05:13:08;;;;;;;60.15;37.45;;;4.20;99.90;;;;;;5102562;28;20111;-66
2021/10/10 05:15:34;;;;;;;78.35;39.50;;;4.30;99.90;;;;;;5091733;28;20041;-66
2021/10/10 05:17:59;;;;;;;64.72;38.90;;;4.10;99.90;;;;;;5096410;28;20121;-66
2021/10/10 05:20:25;;;;;;;55.60;36.85;;;4.10;99.90;;;;;;5087352;28;20085;-66
2021/10/10 05:22:51;;;;;;;64.90;40.30;;;4.00;99.90;;;;;;5097734;28;20040;-66
2021/10/10 05:25:16;;;;;;;64.95;38.20;;;3.90;99.90;;;;;;5103971;28;20217;-67
2021/10/10 05:27:42;;;;;;;71.00;39.47;;;3.80;99.90;;;;;;5082989;28;20043;-67
2021/10/10 05:30:08;;;;;;;69.50;40.63;;;3.90;99.90;;;;;;5058641;28;20081;-67
2021/10/10 05:32:34;;;;;;;61.92;39.83;;;3.80;99.90;;;;;;5082499;28;20055;-66
2021/10/10 05:35:00;;;;;;;73.97;42.53;;;3.90;99.90;;;;;;5077979;28;20510;-66
2021/10/10 05:37:26;;;;;;;72.10;41.60;;;3.90;99.90;;;;;;5100531;28;20044;-66
2021/10/10 05:39:51;;;;;;;67.50;40.13;;;3.90;99.90;;;;;;5092352;28;20476;-66
2021/10/10 05:42:17;;;;;;;77.20;43.63;;;3.90;99.90;;;;;;5099925;28;20083;-66
2021/10/10 05:44:44;;;;;;;93.60;45.35;;;3.80;99.90;;;;;;5093140;28;20055;-66
2021/10/10 05:47:10;;;;;;;65.05;41.22;;;3.80;99.90;;;;;;5101370;28;20051;-67
2021/10/10 05:49:36;;;;;;;75.40;44.55;;;3.70;99.90;;;;;;5102236;28;20044;-66
2021/10/10 05:52:03;;;;;;;66.28;41.17;;;3.70;99.90;;;;;;5096518;28;20044;-66
2021/10/10 05:54:32;;;;;;;69.43;42.58;;;3.70;99.90;;;;;;5084489;28;20044;-66
2021/10/10 05:57:00;;;;;;;63.70;42.05;;;3.70;99.90;;;;;;5097373;28;20124;-67
2021/10/10 05:59:28;;;;;;;68.88;42.90;;;3.90;99.90;;;;;;5082065;28;20055;-66
2021/10/10 06:01:54;;;;;;;69.13;41.00;;;4.10;99.90;;;;;;5095433;28;20071;-67
2021/10/10 06:04:20;;;;;;;69.07;42.95;;;4.20;99.90;;;;;;5079864;28;20048;-67
2021/10/10 06:06:45;;;;;;;63.60;39.97;;;4.20;99.90;;;;;;5100746;28;20036;-67
2021/10/10 06:09:11;;;;;;;65.15;40.75;;;4.20;99.90;;;;;;5095738;28;20036;-67
2021/10/10 06:11:37;;;;;;;67.85;42.22;;;4.20;99.90;;;;;;5102033;28;20044;-67
2021/10/10 06:14:03;;;;;;;67.03;40.92;;;4.20;99.90;;;;;;5094783;28;20450;-67
2021/10/10 06:16:30;;;;;;;58.55;38.17;;;4.30;99.90;;;;;;5083915;28;20067;-67
2021/10/10 06:18:56;;;;;;;66.93;37.05;;;4.30;99.90;;;;;;5094810;28;20040;-67
2021/10/10 06:21:22;;;;;;;53.60;36.45;;;4.40;99.90;;;;;;5101520;28;20042;-67
2021/10/10 06:23:48;;;;;;;58.38;35.47;;;4.70;99.90;;;;;;5093562;28;20039;-67
2021/10/10 06:26:13;;;;;;;46.70;32.53;;;4.80;99.90;;;;;;5084284;28;20534;-67
2021/10/10 06:28:39;;;;;;;38.97;27.77;;;5.00;99.90;;;;;;5093404;28;20052;-67
2021/10/10 06:31:05;;;;;;;36.90;27.15;;;5.00;99.90;;;;;;5098176;28;20485;-67
2021/10/10 06:33:31;;;;;;;39.58;25.13;;;5.10;99.90;;;;;;5103018;28;20101;-67
2021/10/10 06:35:56;;;;;;;38.75;26.52;;;5.10;99.90;;;;;;5100117;28;20075;-67
2021/10/10 06:38:22;;;;;;;43.40;23.85;;;5.20;99.90;;;;;;5074808;28;20083;-67
2021/10/10 06:40:48;;;;;;;34.80;21.63;;;5.20;99.90;;;;;;5084730;28;20044;-67
2021/10/10 06:43:14;;;;;;;35.88;22.73;;;5.30;99.90;;;;;;5075087;28;20827;-67
2021/10/10 06:45:40;;;;;;;35.50;23.45;;;5.30;99.90;;;;;;5099389;28;20096;-67
2021/10/10 06:48:06;;;;;;;37.03;22.63;;;5.30;99.90;;;;;;5102780;28;20098;-67
2021/10/10 06:50:31;;;;;;;36.00;22.52;;;5.30;99.90;;;;;;5095506;28;20045;-67
2021/10/10 06:52:57;;;;;;;31.60;21.70;;;5.40;99.90;;;;;;5085181;28;20068;-67
2021/10/10 06:55:23;;;;;;;29.70;21.70;;;5.30;99.90;;;;;;5096262;28;20045;-67
2021/10/10 06:57:48;;;;;;;35.50;21.90;;;5.40;99.90;;;;;;5083599;28;20055;-67
2021/10/10 07:00:15;;;;;;;31.85;20.80;;;5.40;99.90;;;;;;5098950;28;20037;-67
2021/10/10 07:02:42;;;;;;;36.08;22.65;;;5.40;99.90;;;;;;5099244;28;20389;-67
2021/10/10 07:05:09;;;;;;;29.58;20.80;;;5.40;99.90;;;;;;5100416;28;20114;-67
2021/10/10 07:07:35;;;;;;;37.88;21.90;;;5.50;99.90;;;;;;5097912;28;20127;-67
2021/10/10 07:10:01;;;;;;;35.20;21.90;;;5.50;99.90;;;;;;5083146;28;20044;-68
2021/10/10 07:12:27;;;;;;;36.50;22.10;;;5.60;99.90;;;;;;5078043;28;20040;-67
2021/10/10 07:14:52;;;;;;;38.95;22.05;;;5.60;99.90;;;;;;5102380;28;20411;-67
2021/10/10 07:17:18;;;;;;;41.50;23.45;;;5.70;99.90;;;;;;5095032;28;20178;-67
2021/10/10 07:19:54;;;;;;;32.67;23.65;;;5.70;99.90;;;;;;5101894;28;20103;-67
2021/10/10 07:22:28;;;;;;;40.35;22.05;;;5.80;99.90;;;;;;5094949;28;20399;-67
2021/10/10 07:25:15;;;;;;;32.70;20.75;;;5.90;99.90;;;;;;5103016;28;20048;-67
2021/10/10 07:27:44;;;;;;;37.55;22.73;;;6.00;99.90;;;;;;5094790;28;20051;-67
2021/10/10 07:30:14;;;;;;;31.98;21.20;;;6.20;99.90;;;;;;5102035;28;20040;-67
2021/10/10 07:32:41;;;;;;;31.50;19.90;;;6.30;99.90;;;;;;5076509;28;20071;-67
2021/10/10 07:35:08;;;;;;;25.13;18.15;;;6.40;99.90;;;;;;5101504;28;20058;-68
2021/10/10 07:37:34;;;;;;;31.30;19.97;;;6.50;99.90;;;;;;5076278;28;20070;-68
2021/10/10 07:40:02;;;;;;;30.60;20.02;;;6.60;99.90;;;;;;5099876;28;20048;-67
2021/10/10 07:42:28;;;;;;;34.70;18.60;;;6.70;99.90;;;;;;5076064;28;20040;-68
2021/10/10 07:45:04;;;;;;;30.90;18.95;;;6.80;99.90;;;;;;5082098;28;20056;-68
2021/10/10 07:47:43;;;;;;;28.55;19.60;;;7.00;99.90;;;;;;5071747;28;20059;-68
2021/10/10 07:50:10;;;;;;;31.77;19.45;;;7.10;99.90;;;;;;5099844;28;20044;-68
2021/10/10 07:52:37;;;;;;;27.65;17.38;;;7.40;99.90;;;;;;5093190;28;20059;-68
2021/10/10 07:55:04;;;;;;;27.77;18.02;;;7.50;99.90;;;;;;5080826;28;20086;-68
2021/10/10 07:57:30;;;;;;;27.00;17.92;;;7.70;99.90;;;;;;5074708;28;20044;-68
2021/10/10 07:59:56;;;;;;;26.75;19.70;;;7.80;99.90;;;;;;5099227;28;20107;-68
2021/10/10 08:02:22;;;;;;;31.10;18.10;;;7.90;99.90;;;;;;5085092;28;20508;-68
2021/10/10 08:04:47;;;;;;;25.35;18.88;;;8.00;99.90;;;;;;5081265;28;20039;-69
2021/10/10 08:07:13;;;;;;;26.77;19.20;;;8.10;99.90;;;;;;5106296;28;20133;-68
2021/10/10 08:09:39;;;;;;;28.63;19.25;;;8.20;99.90;;;;;;5098025;28;20043;-68
2021/10/10 08:12:05;;;;;;;28.88;19.10;;;8.30;99.90;;;;;;5105998;28;20036;-68
2021/10/10 08:14:30;;;;;;;27.20;19.60;;;8.40;99.90;;;;;;5080090;28;20100;-69
2021/10/10 08:16:56;;;;;;;25.20;18.08;;;8.50;99.90;;;;;;5105921;28;20041;-68
2021/10/10 08:19:22;;;;;;;27.20;18.83;;;8.60;99.90;;;;;;5098177;28;20048;-69
2021/10/10 08:21:49;;;;;;;25.70;17.63;;;9.00;99.90;;;;;;5105040;28;20044;-67
2021/10/10 08:24:17;;;;;;;24.30;17.47;;;9.20;99.90;;;;;;5099635;28;20123;-68
2021/10/10 08:26:43;;;;;;;25.50;17.55;;;9.40;99.90;;;;;;5103484;28;20044;-68
2021/10/10 08:29:08;;;;;;;27.75;17.75;;;9.60;99.90;;;;;;5101616;28;20116;-68
2021/10/10 08:31:34;;;;;;;30.38;18.58;;;9.80;99.90;;;;;;5098831;28;20052;-68
2021/10/10 08:34:00;;;;;;;31.55;18.85;;;10.00;99.90;;;;;;5103710;28;20626;-68
2021/10/10 08:36:25;;;;;;;26.70;18.17;;;10.00;99.90;;;;;;5099108;28;20044;-68
2021/10/10 08:38:51;;;;;;;30.00;17.70;;;10.00;99.90;;;;;;5085337;28;20044;-68
2021/10/10 08:41:21;;;;;;;26.95;19.00;;;10.00;99.90;;;;;;5097701;28;20511;-68
2021/10/10 08:43:48;;;;;;;24.05;17.80;;;9.90;99.90;;;;;;5105270;28;20051;-68
2021/10/10 08:46:14;;;;;;;28.73;19.67;;;9.90;99.90;;;;;;5094171;28;20060;-68
2021/10/10 08:48:40;;;;;;;29.23;18.35;;;9.90;99.90;;;;;;5099683;28;20055;-68
2021/10/10 08:51:06;;;;;;;27.45;17.60;;;9.80;99.90;;;;;;5092860;28;20075;-68
2021/10/10 08:53:32;;;;;;;30.67;18.48;;;9.80;99.90;;;;;;5100452;28;20606;-68
2021/10/10 08:55:58;;;;;;;29.77;18.23;;;9.80;99.90;;;;;;5092111;28;20095;-68
2021/10/10 08:58:25;;;;;;;29.98;19.10;;;9.80;99.90;;;;;;5099724;28;20404;-68
2021/10/10 09:01:00;;;;;;;27.17;19.48;;;9.70;99.90;;;;;;5090954;28;20119;-68
2021/10/10 09:03:26;;;;;;;25.65;18.63;;;9.70;99.90;;;;;;5094708;28;20077;-68
2021/10/10 09:05:52;;;;;;;25.98;18.48;;;9.70;99.90;;;;;;5073972;28;20045;-68
2021/10/10 09:08:22;;;;;;;27.77;19.00;;;9.70;99.90;;;;;;5099389;28;20085;-68
2021/10/10 09:11:01;;;;;;;31.75;19.58;;;9.70;99.90;;;;;;5092010;28;20096;-68
2021/10/10 09:13:35;;;;;;;27.15;19.40;;;9.70;99.90;;;;;;5092971;28;20040;-69
2021/10/10 09:16:01;;;;;;;28.80;18.38;;;9.80;99.90;;;;;;5091542;28;20052;-69
2021/10/10 09:18:39;;;;;;;40.63;21.00;;;9.80;99.90;;;;;;5098720;28;20048;-68
2021/10/10 09:21:31;;;;;;;28.67;18.90;;;9.90;99.90;;;;;;5091138;28;20051;-69
2021/10/10 09:23:57;;;;;;;29.55;19.15;;;9.90;99.90;;;;;;5075611;28;20164;-69
2021/10/10 09:26:23;;;;;;;33.78;19.70;;;10.00;99.90;;;;;;5090390;28;20067;-69
2021/10/10 09:28:50;;;;;;;33.42;19.90;;;10.20;99.90;;;;;;5097905;28;20040;-69
2021/10/10 09:31:16;;;;;;;34.50;20.25;;;10.50;99.90;;;;;;5072790;28;20076;-69
2021/10/10 09:33:49;;;;;;;28.52;20.23;;;10.80;99.90;;;;;;5091661;28;20070;-69
2021/10/10 09:36:27;;;;;;;27.45;18.88;;;10.90;99.90;;;;;;5104697;28;20043;-70
2021/10/10 09:41:34;;;;;;;30.15;18.13;;;11.40;99.90;;;;;;5103834;28;20060;-69
2021/10/10 09:44:04;;;;;;;24.00;17.95;;;11.60;99.90;;;;;;5082848;28;20043;-69
2021/10/10 09:46:30;;;;;;;29.73;19.23;;;11.70;99.90;;;;;;5082416;28;20052;-69
2021/10/10 09:48:57;;;;;;;32.40;18.60;;;11.80;99.90;;;;;;5088232;28;20052;-69
2021/10/10 09:51:31;;;;;;;27.85;19.08;;;11.90;99.90;;;;;;5081376;28;20073;-69
2021/10/10 09:54:05;;;;;;;28.20;19.40;;;11.90;99.90;;;;;;5075015;28;20135;-70
2021/10/10 09:56:32;;;;;;;28.77;19.30;;;12.10;99.90;;;;;;5081259;28;20058;-70
2021/10/10 09:58:57;;;;;;;35.45;21.02;;;12.10;99.90;;;;;;5092647;28;20116;-70
2021/10/10 10:01:24;;;;;;;25.67;19.02;;;12.30;99.90;;;;;;5099595;28;20044;-70
2021/10/10 10:04:03;;;;;;;26.70;19.52;;;12.30;99.90;;;;;;5094014;28;20111;-69
2021/10/10 10:06:33;;;;;;;32.08;19.27;;;12.40;99.90;;;;;;5090990;28;20052;-71
2021/10/10 10:09:03;;;;;;;31.95;20.45;;;12.50;99.90;;;;;;5075052;28;20531;-71
2021/10/10 10:11:37;;;;;;;29.02;18.70;;;12.70;99.90;;;;;;5079226;28;20048;-70
2021/10/10 10:14:17;;;;;;;28.67;18.50;;;12.80;99.90;;;;;;5093455;28;20052;-70
2021/10/10 10:16:45;;;;;;;33.45;18.33;;;12.80;99.90;;;;;;5090930;28;20097;-72
2021/10/10 10:19:15;;;;;;;29.48;20.42;;;12.90;99.90;;;;;;5092739;28;20044;-70
2021/10/10 10:21:41;;;;;;;27.83;18.90;;;13.10;99.90;;;;;;5079742;28;20066;-70
2021/10/10 10:24:11;;;;;;;31.33;19.38;;;13.10;99.90;;;;;;5101292;28;20043;-70
2021/10/10 10:26:37;;;;;;;29.70;21.00;;;13.20;99.90;;;;;;5097326;28;20036;-71
2021/10/10 10:29:07;;;;;;;32.22;20.50;;;13.30;99.90;;;;;;5076940;28;20059;-71
2021/10/10 10:31:35;;;;;;;32.70;20.98;;;13.40;99.90;;;;;;5081513;28;20074;-71
2021/10/10 10:34:36;;;;;;;28.98;19.70;;;13.40;99.90;;;;;;5096138;28;20119;-70
2021/10/10 10:37:06;;;;;;;32.30;21.67;;;13.50;99.90;;;;;;4979295;28;20073;-70
2021/10/10 10:39:32;;;;;;;31.75;20.48;;;13.50;99.90;;;;;;4984803;28;20054;-70
2021/10/10 10:41:58;;;;;;;31.45;20.85;;;13.60;99.90;;;;;;5001886;28;20042;-70
2021/10/10 10:44:40;;;;;;;31.50;21.60;;;13.70;99.90;;;;;;4985508;28;20069;-70
2021/10/10 10:47:20;;;;;;;33.65;21.08;;;13.70;99.90;;;;;;4991953;28;20065;-70
2021/10/10 10:50:06;;;;;;;28.30;20.52;;;13.80;99.90;;;;;;5001782;28;20118;-70
2021/10/10 10:52:41;;;;;;;29.50;20.85;;;13.90;99.90;;;;;;4969107;28;20157;-71
2021/10/10 10:55:29;;;;;;;36.88;22.20;;;13.90;99.90;;;;;;5001147;28;20054;-70
2021/10/10 10:58:10;;;;;;;31.33;21.95;;;14.00;99.90;;;;;;5001635;28;20125;-69
2021/10/10 11:00:50;;;;;;;31.63;21.85;;;14.10;99.90;;;;;;5001523;28;20039;-71
2021/10/10 11:03:22;;;;;;;33.05;22.02;;;14.10;99.90;;;;;;5002122;28;20481;-70
2021/10/10 11:05:55;;;;;;;32.70;21.35;;;14.20;99.90;;;;;;5001803;28;20073;-70
2021/10/10 11:08:27;;;;;;;39.17;23.27;;;14.10;99.90;;;;;;5001809;28;20113;-70
2021/10/10 11:11:17;;;;;;;31.98;20.75;;;14.30;99.90;;;;;;5029750;28;20067;-70
2021/10/10 11:13:43;;;;;;;32.47;22.45;;;14.50;99.90;;;;;;5074981;28;20084;-70
2021/10/10 11:16:28;;;;;;;34.85;22.00;;;14.70;99.90;;;;;;5085822;28;20063;-70
2021/10/10 11:18:56;;;;;;;38.75;25.58;;;14.80;99.90;;;;;;5092988;28;20040;-70
2021/10/10 11:21:29;;;;;;;38.95;23.73;;;14.90;99.90;;;;;;5100468;28;20044;-70
2021/10/10 11:23:58;;;;;;;32.88;23.17;;;15.00;99.90;;;;;;5102535;28;20047;-71
2021/10/10 11:26:25;;;;;;;31.05;22.23;;;15.30;99.90;;;;;;5084361;28;20056;-71
2021/10/10 11:28:59;;;;;;;35.05;23.08;;;15.40;99.90;;;;;;5095754;28;20491;-71
2021/10/10 11:31:28;;;;;;;32.88;22.30;;;16.00;99.90;;;;;;5098286;28;20434;-71
2021/10/10 11:33:59;;;;;;;33.40;21.98;;;16.70;99.90;;;;;;5089504;28;20044;-70
2021/10/10 11:36:50;;;;;;;30.42;22.25;;;17.00;99.90;;;;;;5102466;28;20048;-71
2021/10/10 11:39:20;;;;;;;30.63;21.52;;;17.40;99.90;;;;;;5095950;28;20426;-70
2021/10/10 11:41:49;;;;;;;33.33;21.50;;;17.50;99.90;;;;;;5102669;28;20044;-71
2021/10/10 11:44:18;;;;;;;33.50;22.85;;;17.70;99.90;;;;;;5094987;28;20036;-71
2021/10/10 11:46:50;;;;;;;32.85;23.08;;;17.70;99.90;;;;;;5101990;28;20119;-71
2021/10/10 11:49:22;;;;;;;30.15;23.40;;;17.80;99.90;;;;;;5086642;28;20047;-71
2021/10/10 11:51:50;;;;;;;34.65;22.83;;;18.10;99.90;;;;;;5097814;28;20048;-71
2021/10/10 11:54:40;;;;;;;30.73;23.17;;;18.00;99.90;;;;;;5089406;28;20047;-70
2021/10/10 11:57:08;;;;;;;31.10;22.08;;;18.10;99.90;;;;;;5098147;28;20058;-70
2021/10/10 11:59:35;;;;;;;32.92;23.67;;;18.30;99.90;;;;;;5104924;28;20036;-70
2021/10/10 12:02:02;;;;;;;29.88;23.23;;;18.50;99.90;;;;;;5097734;28;20048;-70
2021/10/10 12:04:27;;;;;;;34.25;22.98;;;18.80;99.90;;;;;;5104263;28;20043;-70
2021/10/10 12:06:54;;;;;;;32.20;24.15;;;18.70;99.90;;;;;;5096402;28;20040;-70
2021/10/10 12:09:20;;;;;;;31.67;24.30;;;18.70;99.90;;;;;;5102747;28;20039;-70
2021/10/10 12:12:14;;;;;;;36.10;24.45;;;18.90;99.90;;;;;;5077460;28;20078;-70
2021/10/10 12:14:54;;;;;;;29.52;22.83;;;18.80;99.90;;;;;;5103428;28;20097;-70
2021/10/10 12:17:32;;;;;;;40.53;24.63;;;18.70;99.90;;;;;;5078705;28;20048;-70
2021/10/10 12:19:59;;;;;;;37.63;26.58;;;18.30;99.90;;;;;;5103382;28;20105;-70
2021/10/10 12:22:26;;;;;;;36.30;25.95;;;17.70;99.90;;;;;;5096147;28;20498;-70
2021/10/10 12:24:52;;;;;;;32.90;24.38;;;17.10;99.90;;;;;;5102376;28;20406;-70
2021/10/10 12:27:28;;;;;;;38.67;27.27;;;17.20;99.90;;;;;;5096331;28;20127;-70
2021/10/10 12:29:54;;;;;;;34.78;25.88;;;17.30;99.90;;;;;;5102484;28;20040;-69
2021/10/10 12:32:26;;;;;;;37.78;25.80;;;17.10;99.90;;;;;;5077802;28;20068;-70
2021/10/10 12:35:21;;;;;;;39.78;26.67;;;17.40;99.90;;;;;;5086830;28;20135;-69
2021/10/10 12:37:50;;;;;;;33.08;26.05;;;17.60;99.90;;;;;;5072036;28;20056;-69
2021/10/10 12:40:29;;;;;;;35.38;26.98;;;17.60;99.90;;;;;;5101666;28;20285;-70
2021/10/10 12:42:55;;;;;;;38.53;26.67;;;17.30;99.90;;;;;;5095387;28;20374;-70